Time;durP1;ratioP1;P1;durP2;ratioP2;P2;SDS_P1;SDS_P2;PMS_P1;PMS_P2;Temp;Humidity;BMP_temperature;BMP_pressure;BME280_temperature;BME280_humidity;BME280_pressure;Samples;Min_cycle;Max_cycle;Signal;HPM_P1;HPM_P2
2021/03/09 00:00:01;;;;;;;9.98;4.89;;;;;;;-5.05;63.46;99311.93;351410;115;1961986;-72
2021/03/09 00:01:09;;;;;;;10.79;4.70;;;;;;;-5.02;63.41;99310.86;354046;111;1962046;-72
2021/03/09 00:02:15;;;;;;;8.99;4.49;;;;;;;-5.02;63.58;99322.23;324010;111;2657958;-71
2021/03/09 00:03:21;;;;;;;11.80;5.09;;;;;;;-4.97;63.61;99313.98;357441;111;1964018;-72
2021/03/09 00:04:27;;;;;;;9.27;4.04;;;;;;;-4.96;63.42;99310.39;354132;111;1962009;-71
2021/03/09 00:05:33;;;;;;;9.64;4.48;;;;;;;-5.01;63.40;99316.00;331321;112;2486978;-71
2021/03/09 00:06:38;;;;;;;11.52;4.53;;;;;;;-5.00;63.33;99322.09;357194;111;1963001;-71
2021/03/09 00:07:44;;;;;;;9.97;4.41;;;;;;;-5.00;63.46;99314.20;356286;111;1961997;-71
2021/03/09 00:08:49;;;;;;;8.98;3.92;;;;;;;-5.00;63.42;99309.80;355360;112;1961974;-71
2021/03/09 00:09:55;;;;;;;12.11;5.17;;;;;;;-5.01;63.64;99310.73;329977;114;2386840;-71
2021/03/09 00:11:11;;;;;;;9.89;4.87;;;;;;;-4.97;63.57;99320.09;343557;112;1961976;-71
2021/03/09 00:12:16;;;;;;;11.27;4.59;;;;;;;-4.94;63.55;99319.02;355226;112;1962973;-72
2021/03/09 00:13:21;;;;;;;12.54;4.64;;;;;;;-4.97;63.48;99320.09;347601;115;1961922;-72
2021/03/09 00:14:27;;;;;;;8.79;4.38;;;;;;;-4.98;63.64;99318.39;321092;115;2508965;-72
2021/03/09 00:15:43;;;;;;;11.04;4.38;;;;;;;-4.99;63.47;99323.80;327326;114;1961995;-71
2021/03/09 00:17:01;;;;;;;10.63;4.22;;;;;;;-4.98;63.62;99322.83;330300;111;2210040;-71
2021/03/09 00:18:11;;;;;;;8.76;4.13;;;;;;;-4.94;63.74;99311.12;345493;115;1961971;-70
2021/03/09 00:19:16;;;;;;;10.26;4.74;;;;;;;-4.97;63.77;99316.63;344414;115;1962001;-71
2021/03/09 00:20:22;;;;;;;9.16;4.17;;;;;;;-4.93;63.90;99316.25;343971;115;1963967;-71
2021/03/09 00:21:27;;;;;;;9.47;4.09;;;;;;;-4.91;63.62;99309.08;329400;115;2319044;-70
2021/03/09 00:22:33;;;;;;;7.28;4.03;;;;;;;-4.88;63.61;99313.28;340449;115;1961982;-71
2021/03/09 00:23:39;;;;;;;13.83;3.82;;;;;;;-4.86;63.78;99314.84;342752;116;1961982;-72
2021/03/09 00:24:44;;;;;;;8.90;3.49;;;;;;;-4.86;63.58;99316.64;343926;115;1962998;-72
2021/03/09 00:25:50;;;;;;;10.57;4.82;;;;;;;-4.85;63.44;99310.41;321629;116;2475021;-73
2021/03/09 00:26:55;;;;;;;11.69;3.96;;;;;;;-4.83;63.58;99311.13;333078;116;1962001;-72
2021/03/09 00:28:03;;;;;;;8.99;4.08;;;;;;;-4.80;63.36;99316.16;344498;115;1964039;-72
2021/03/09 00:29:08;;;;;;;9.14;4.08;;;;;;;-4.76;63.36;99300.95;333686;116;2218970;-71
2021/03/09 00:30:15;;;;;;;9.50;4.19;;;;;;;-4.75;63.36;99313.19;342100;116;1963332;-71
2021/03/09 00:31:20;;;;;;;8.53;3.96;;;;;;;-4.77;63.55;99315.92;342176;115;1961953;-71
2021/03/09 00:32:26;;;;;;;11.60;3.84;;;;;;;-4.76;63.41;99309.72;327908;118;2219919;-71
2021/03/09 00:33:31;;;;;;;10.11;4.14;;;;;;;-4.78;63.60;99316.89;339011;115;1961946;-71
2021/03/09 00:34:37;;;;;;;10.99;4.37;;;;;;;-4.73;63.41;99316.55;342858;115;1961925;-71
2021/03/09 00:35:43;;;;;;;8.58;3.76;;;;;;;-4.73;63.49;99322.66;344114;115;1961962;-72
2021/03/09 00:36:48;;;;;;;7.79;4.08;;;;;;;-4.72;63.56;99316.41;307723;115;2087823;-72
2021/03/09 00:37:54;;;;;;;8.24;3.77;;;;;;;-4.70;63.38;99317.14;344454;115;1963001;-71
2021/03/09 00:38:59;;;;;;;9.11;3.84;;;;;;;-4.69;63.28;99320.61;343815;115;1961964;-72
2021/03/09 00:40:06;;;;;;;10.82;4.35;;;;;;;-4.68;63.30;99320.51;343636;116;1962002;-71
2021/03/09 00:41:12;;;;;;;9.25;4.32;;;;;;;-4.69;63.37;99324.08;344417;116;1961991;-71
2021/03/09 00:42:17;;;;;;;8.12;3.96;;;;;;;-4.69;63.28;99320.61;344418;115;1962041;-71
2021/03/09 00:43:23;;;;;;;8.70;3.82;;;;;;;-4.65;63.21;99324.70;344720;115;1964001;-71
2021/03/09 00:44:28;;;;;;;8.26;4.42;;;;;;;-4.65;63.26;99324.70;318980;115;2517016;-71
2021/03/09 00:45:34;;;;;;;8.87;4.67;;;;;;;-4.62;63.28;99318.36;344491;115;1961961;-71
2021/03/09 00:46:42;;;;;;;8.19;3.48;;;;;;;-4.60;63.39;99314.66;307669;115;2771056;-72
2021/03/09 00:47:48;;;;;;;6.97;3.27;;;;;;;-4.65;63.47;99315.00;342472;116;1962046;-71
2021/03/09 00:48:53;;;;;;;7.22;3.13;;;;;;;-4.63;63.21;99317.53;343977;115;1961969;-71
2021/03/09 00:49:59;;;;;;;8.88;3.69;;;;;;;-4.62;63.34;99315.73;344518;115;1962038;-71
2021/03/09 00:51:05;;;;;;;8.81;3.57;;;;;;;-4.61;63.20;99318.23;324066;116;2397881;-71
2021/03/09 00:52:11;;;;;;;6.86;2.87;;;;;;;-4.61;63.26;99322.66;345593;115;1961933;-71
2021/03/09 00:53:17;;;;;;;7.39;3.12;;;;;;;-4.59;63.30;99318.13;345354;116;1961932;-71
2021/03/09 00:54:22;;;;;;;7.13;3.39;;;;;;;-4.60;63.30;99317.28;320478;115;2502982;-72
2021/03/09 00:55:27;;;;;;;7.38;3.41;;;;;;;-4.59;63.31;99318.95;320770;116;1961981;-71
2021/03/09 00:56:33;;;;;;;8.28;3.39;;;;;;;-4.57;63.54;99309.14;341486;117;1961944;-72
2021/03/09 00:57:39;;;;;;;8.06;3.23;;;;;;;-4.56;63.52;99317.88;343061;115;1961933;-71
2021/03/09 00:58:45;;;;;;;7.32;3.02;;;;;;;-4.56;63.24;99313.44;312046;116;2654034;-71
2021/03/09 00:59:50;;;;;;;8.90;2.89;;;;;;;-4.53;63.35;99317.64;338153;117;1962025;-71
2021/03/09 01:00:56;;;;;;;9.04;3.49;;;;;;;-4.51;63.37;99313.92;345320;115;1961969;-72
2021/03/09 01:02:02;;;;;;;8.99;3.59;;;;;;;-4.48;63.39;99315.48;344692;115;1961932;-72
2021/03/09 01:03:08;;;;;;;7.24;3.08;;;;;;;-4.51;63.31;99328.91;341401;116;1962018;-72
2021/03/09 01:04:13;;;;;;;6.69;3.16;;;;;;;-4.50;63.29;99322.67;343791;115;1961980;-71
2021/03/09 01:05:21;;;;;;;7.89;3.54;;;;;;;-4.51;63.50;99321.00;342730;116;1962011;-71
2021/03/09 01:06:26;;;;;;;6.20;2.86;;;;;;;-4.48;63.54;99320.76;343768;115;1961923;-71
2021/03/09 01:07:31;;;;;;;6.30;3.01;;;;;;;-4.47;63.31;99318.02;347121;108;1962004;-72
2021/03/09 01:08:37;;;;;;;8.45;3.06;;;;;;;-4.45;63.43;99323.16;364638;107;1961040;-72
2021/03/09 01:09:43;;;;;;;6.96;3.46;;;;;;;-4.45;63.57;99320.52;339636;108;2218051;-72
2021/03/09 01:10:50;;;;;;;7.83;3.29;;;;;;;-4.47;63.39;99317.19;368422;107;1961911;-70
2021/03/09 01:11:55;;;;;;;7.11;2.97;;;;;;;-4.44;63.64;99322.21;361115;108;1960671;-72
2021/03/09 01:13:01;;;;;;;8.65;3.67;;;;;;;-4.41;63.54;99316.70;316335;116;2564979;-73
2021/03/09 01:14:06;;;;;;;9.32;3.10;;;;;;;-4.38;63.66;99312.98;330645;112;1964683;-72
2021/03/09 01:15:12;;;;;;;6.16;2.69;;;;;;;-4.38;63.53;99320.89;359223;110;1962976;-72
2021/03/09 01:16:18;;;;;;;7.34;2.75;;;;;;;-4.39;63.56;99317.42;359919;111;1963055;-73
2021/03/09 01:17:23;;;;;;;6.27;2.74;;;;;;;-4.38;63.57;99321.73;332000;115;2360990;-72
2021/03/09 01:18:39;;;;;;;9.72;3.64;;;;;;;-4.39;63.62;99325.33;349368;113;1961962;-72
2021/03/09 01:19:46;;;;;;;6.09;2.93;;;;;;;-4.39;63.36;99317.42;365883;109;1963969;-72
2021/03/09 01:20:52;;;;;;;6.56;3.27;;;;;;;-4.36;63.42;99319.81;323998;111;2077401;-71
2021/03/09 01:21:58;;;;;;;9.16;3.92;;;;;;;-4.34;63.50;99322.31;360894;111;1961942;-71
2021/03/09 01:23:03;;;;;;;8.31;3.32;;;;;;;-4.33;63.46;99316.94;362866;110;1961951;-72
2021/03/09 01:24:09;;;;;;;7.81;2.68;;;;;;;-4.32;63.38;99329.15;333569;111;2474003;-72
2021/03/09 01:25:14;;;;;;;6.16;3.05;;;;;;;-4.32;63.35;99329.15;360970;109;1962009;-71
2021/03/09 01:26:22;;;;;;;8.26;2.88;;;;;;;-4.30;63.54;99321.13;362662;109;1961938;-72
2021/03/09 01:27:27;;;;;;;7.72;2.72;;;;;;;-4.28;63.44;99324.50;332224;109;2228004;-72
2021/03/09 01:28:32;;;;;;;6.44;2.76;;;;;;;-4.29;63.43;99328.07;350971;109;1962045;-72
2021/03/09 01:29:39;;;;;;;5.49;2.74;;;;;;;-4.24;63.35;99323.28;362152;109;1961968;-72
2021/03/09 01:30:47;;;;;;;6.38;3.17;;;;;;;-4.27;63.27;99334.08;355637;111;1961859;-71
2021/03/09 01:31:52;;;;;;;7.98;3.17;;;;;;;-4.29;63.31;99322.80;357476;111;1961947;-72
2021/03/09 01:32:59;;;;;;;5.19;2.69;;;;;;;-4.28;63.43;99333.23;356646;111;1961968;-71
2021/03/09 01:34:04;;;;;;;6.22;3.11;;;;;;;-4.28;63.31;99341.15;360273;109;1962994;-71
2021/03/09 01:35:11;;;;;;;5.52;2.64;;;;;;;-4.28;63.41;99327.13;361389;109;1962066;-71
2021/03/09 01:36:17;;;;;;;6.71;3.03;;;;;;;-4.27;63.62;99332.27;318142;109;2853944;-71
2021/03/09 01:37:22;;;;;;;7.17;3.24;;;;;;;-4.28;63.83;99322.69;355497;109;1962034;-71
2021/03/09 01:38:28;;;;;;;5.47;3.13;;;;;;;-4.26;63.59;99328.69;361763;109;1962983;-72
2021/03/09 01:39:35;;;;;;;7.36;2.88;;;;;;;-4.26;63.57;99318.14;357367;113;1961981;-71
2021/03/09 01:40:43;;;;;;;6.09;3.17;;;;;;;-4.26;63.53;99330.47;358002;111;1961882;-71
2021/03/09 01:41:48;;;;;;;6.91;2.97;;;;;;;-4.26;63.54;99330.47;336776;111;2442938;-71
2021/03/09 01:42:54;;;;;;;9.78;4.28;;;;;;;-4.26;63.51;99330.47;351586;110;1961948;-71
2021/03/09 01:43:59;;;;;;;7.15;2.89;;;;;;;-4.23;63.60;99330.25;360762;109;1961977;-72
2021/03/09 01:45:06;;;;;;;5.69;2.65;;;;;;;-4.23;63.51;99330.25;357390;111;1962014;-69
2021/03/09 01:46:12;;;;;;;8.27;3.13;;;;;;;-4.22;63.64;99327.47;344415;111;1963998;-69
2021/03/09 01:47:20;;;;;;;6.37;2.88;;;;;;;-4.21;63.66;99326.53;357303;111;1961941;-70
2021/03/09 01:48:28;;;;;;;6.79;2.68;;;;;;;-4.23;63.66;99331.08;350427;109;1962006;-71
2021/03/09 01:49:37;;;;;;;5.17;2.49;;;;;;;-4.21;63.69;99331.81;322793;109;2130909;-72
2021/03/09 01:50:45;;;;;;;5.82;2.69;;;;;;;-4.19;63.70;99334.31;361778;109;1961955;-72
2021/03/09 01:51:52;;;;;;;6.66;3.11;;;;;;;-4.18;63.79;99328.09;347550;114;1962029;-72
2021/03/09 01:52:57;;;;;;;7.32;2.85;;;;;;;-4.16;63.77;99325.31;322411;111;2050302;-72
2021/03/09 01:54:02;;;;;;;6.96;2.96;;;;;;;-4.14;63.64;99329.52;356708;111;1962968;-71
2021/03/09 01:55:10;;;;;;;6.17;3.13;;;;;;;-4.14;63.80;99323.41;357325;111;1961995;-72
2021/03/09 01:56:16;;;;;;;7.19;3.09;;;;;;;-4.13;63.69;99328.55;347737;111;1965035;-71
2021/03/09 01:57:21;;;;;;;8.09;3.21;;;;;;;-4.12;63.63;99329.41;360962;109;1961914;-72
2021/03/09 01:58:30;;;;;;;7.54;3.04;;;;;;;-4.12;63.76;99324.96;362101;109;1963943;-71
2021/03/09 01:59:37;;;;;;;7.39;2.90;;;;;;;-4.09;63.79;99326.52;361585;109;1961978;-71
2021/03/09 02:00:44;;;;;;;7.31;2.80;;;;;;;-4.09;63.79;99329.99;362842;110;1961915;-71
2021/03/09 02:01:54;;;;;;;6.32;2.88;;;;;;;-4.09;63.85;99334.44;361931;109;1962950;31
2021/03/09 02:03:01;;;;;;;6.92;3.12;;;;;;;-4.09;63.51;99335.27;314204;114;2710993;-71
2021/03/09 02:04:06;;;;;;;7.00;2.71;;;;;;;-4.09;63.47;99331.80;345192;114;1962002;-70
2021/03/09 02:05:12;;;;;;;5.93;2.80;;;;;;;-4.09;63.82;99332.63;346702;115;1961986;-71
2021/03/09 02:06:19;;;;;;;6.64;3.08;;;;;;;-4.09;63.64;99335.27;304883;115;2204129;-71
2021/03/09 02:07:24;;;;;;;6.62;3.01;;;;;;;-4.07;63.69;99341.27;347631;114;1961062;-71
2021/03/09 02:08:32;;;;;;;7.83;2.66;;;;;;;-4.06;63.40;99339.47;347191;115;1963146;-72
2021/03/09 02:09:38;;;;;;;6.58;3.32;;;;;;;-4.06;63.61;99337.66;342940;115;1961990;-72
2021/03/09 02:10:45;;;;;;;7.91;3.31;;;;;;;-4.05;63.83;99342.00;349673;115;1961846;-71
2021/03/09 02:11:57;;;;;;;5.97;2.86;;;;;;;-4.04;63.68;99337.55;326140;115;2449813;-71
2021/03/09 02:13:09;;;;;;;;;;;;;;;-4.04;63.64;99338.38;351798;115;1962006;-71
2021/03/09 02:14:18;;;;;;;7.58;2.71;;;;;;;-4.02;63.90;99338.27;329394;115;1962873;-71
2021/03/09 02:15:36;;;;;;;8.38;3.16;;;;;;;-4.02;63.82;99343.55;312560;115;2070434;-71
2021/03/09 02:17:02;;;;;;;6.49;3.16;;;;;;;-4.00;63.74;99339.80;347780;114;1962987;-71
2021/03/09 02:18:17;;;;;;;9.18;4.02;;;;;;;-3.99;63.49;99338.03;338757;112;1962020;-71
2021/03/09 02:19:44;;;;;;;6.47;3.72;;;;;;;-3.99;63.34;99345.94;347840;113;1961916;-71
2021/03/09 02:21:27;;;;;;;7.42;3.02;;;;;;;-4.01;63.46;99351.33;300634;115;2238834;-70
2021/03/09 02:22:53;;;;;;;6.63;3.09;;;;;;;-4.02;63.29;99354.11;341857;114;2907945;-71
2021/03/09 02:24:02;;;;;;;6.12;3.09;;;;;;;-4.04;63.90;99354.21;325106;114;2198964;-71
2021/03/09 02:25:27;;;;;;;6.58;2.78;;;;;;;-4.04;63.60;99359.48;328185;116;2311942;-71
2021/03/09 02:26:56;;;;;;;7.39;3.42;;;;;;;-4.05;63.39;99360.46;338903;117;1961979;-71
2021/03/09 02:28:16;;;;;;;6.83;3.31;;;;;;;-4.04;63.30;99350.73;350487;112;1961827;-71
2021/03/09 02:29:37;;;;;;;8.02;2.77;;;;;;;-4.05;63.18;99356.95;365387;109;1962030;-72
2021/03/09 02:30:45;;;;;;;6.98;3.22;;;;;;;-4.06;63.37;99350.84;346912;109;2351074;-73
2021/03/09 02:31:51;;;;;;;7.13;2.83;;;;;;;-4.04;63.10;99356.02;362024;111;1962026;-72
2021/03/09 02:33:19;;;;;;;6.40;3.33;;;;;;;-4.05;63.59;99357.83;327534;110;2688039;-72
2021/03/09 02:34:38;;;;;;;9.78;3.74;;;;;;;-4.05;63.81;99356.95;361878;111;1961909;-72
2021/03/09 02:35:47;;;;;;;8.26;3.98;;;;;;;-4.05;63.45;99360.46;360744;109;1962978;-72
2021/03/09 02:36:54;;;;;;;6.82;2.92;;;;;;;-4.06;63.62;99361.40;362074;111;1961992;-72
2021/03/09 02:38:03;;;;;;;7.68;3.48;;;;;;;-4.05;63.47;99365.73;334928;110;2531018;-73
2021/03/09 02:39:12;;;;;;;7.63;3.38;;;;;;;-4.06;63.32;99371.95;315733;111;2893982;-72
2021/03/09 02:40:19;;;;;;;8.05;4.10;;;;;;;-4.05;63.37;99364.88;334248;111;2220987;-72
2021/03/09 02:41:27;;;;;;;8.08;3.34;;;;;;;-4.06;63.47;99371.95;361601;111;1962042;-72
2021/03/09 02:42:36;;;;;;;9.43;3.94;;;;;;;-4.01;63.42;99368.96;353808;111;1961921;-73
2021/03/09 02:43:43;;;;;;;6.14;3.21;;;;;;;-4.03;63.49;99366.43;330415;111;1980633;-72
2021/03/09 02:44:53;;;;;;;5.69;3.07;;;;;;;-4.01;63.46;99367.16;360666;110;1964042;-73
2021/03/09 02:46:02;;;;;;;7.37;3.44;;;;;;;-4.02;63.20;99367.30;359415;111;1963840;-73
2021/03/09 02:47:19;;;;;;;9.50;3.71;;;;;;;-4.04;63.50;99364.77;361251;111;1962028;-73
2021/03/09 02:48:38;;;;;;;6.52;2.92;;;;;;;-4.05;63.55;99373.66;358299;111;1961857;-71
2021/03/09 02:49:44;;;;;;;6.67;2.81;;;;;;;-4.04;63.50;99371.84;357717;110;1962994;-73
2021/03/09 02:50:55;;;;;;;7.56;2.59;;;;;;;-4.06;63.43;99377.23;363888;109;1963001;-73
2021/03/09 02:52:03;;;;;;;6.64;3.04;;;;;;;-4.04;63.45;99371.84;364143;110;1962894;-73
2021/03/09 02:53:11;;;;;;;5.98;3.13;;;;;;;-4.01;63.59;99372.44;360760;109;1962034;-73
2021/03/09 02:54:18;;;;;;;8.61;3.52;;;;;;;-3.98;63.42;99366.91;360404;109;1960769;-72
2021/03/09 02:55:26;;;;;;;5.92;3.05;;;;;;;-3.98;63.36;99364.27;334594;109;2524922;-73
2021/03/09 02:56:36;;;;;;;7.22;2.98;;;;;;;-3.99;63.41;99380.23;343862;109;2331041;-73
2021/03/09 02:57:42;;;;;;;7.02;3.13;;;;;;;-4.01;63.74;99366.32;354555;111;1962055;-73
2021/03/09 02:58:52;;;;;;;6.14;3.11;;;;;;;-4.03;63.42;99374.34;358092;112;1961999;-72
2021/03/09 02:59:57;;;;;;;7.11;4.16;;;;;;;-4.03;63.71;99378.79;330589;109;1963018;-73
2021/03/09 03:01:05;;;;;;;6.64;3.51;;;;;;;-4.02;63.43;99375.20;348454;112;1963080;-72
2021/03/09 03:02:19;;;;;;;8.76;3.99;;;;;;;-4.01;63.41;99382.16;335658;110;1960767;-72
2021/03/09 03:03:26;;;;;;;5.89;2.39;;;;;;;-4.02;63.41;99376.05;333528;110;1961970;-72
2021/03/09 03:04:34;;;;;;;5.31;2.73;;;;;;;-4.01;63.36;99377.70;353480;112;1962968;-72
2021/03/09 03:05:41;;;;;;;7.39;2.77;;;;;;;-4.04;63.09;99390.31;360237;110;1963906;-73
2021/03/09 03:06:48;;;;;;;7.11;3.15;;;;;;;-4.04;63.31;99377.13;324775;110;2735990;-73
2021/03/09 03:07:54;;;;;;;6.00;2.98;;;;;;;-4.03;63.50;99378.79;359423;110;1963753;-73
2021/03/09 03:09:01;;;;;;;7.13;2.92;;;;;;;-4.02;63.44;99383.95;360186;109;1961017;-73
2021/03/09 03:10:17;;;;;;;5.43;2.83;;;;;;;-4.03;63.30;99376.16;357936;110;1963896;-73
2021/03/09 03:11:23;;;;;;;6.54;3.14;;;;;;;-4.02;63.49;99385.77;353301;112;1962046;-72
2021/03/09 03:12:34;;;;;;;7.49;3.28;;;;;;;-4.03;63.67;99382.26;317799;112;2726012;-73
2021/03/09 03:13:44;;;;;;;5.89;2.39;;;;;;;-4.03;63.75;99379.62;364650;110;1961026;-72
2021/03/09 03:14:52;;;;;;;7.03;3.28;;;;;;;-4.00;63.64;99370.63;351048;114;1961067;-70
2021/03/09 03:16:00;;;;;;;7.68;2.63;;;;;;;-4.01;63.84;99380.34;334923;113;1963050;-71
2021/03/09 03:17:08;;;;;;;5.17;2.28;;;;;;;-4.00;63.51;99384.66;307383;115;2858027;-70
2021/03/09 03:18:17;;;;;;;4.94;2.56;;;;;;;-4.01;63.67;99388.27;316511;115;2193140;-71
2021/03/09 03:19:25;;;;;;;6.28;2.61;;;;;;;-4.01;63.69;99388.27;345924;116;1962988;-71
2021/03/09 03:20:35;;;;;;;5.98;3.00;;;;;;;-3.99;63.92;99386.35;342916;116;1962019;-70
2021/03/09 03:21:42;;;;;;;5.93;2.68;;;;;;;-4.00;63.74;99379.38;345242;116;1961953;-71
2021/03/09 03:22:49;;;;;;;6.98;2.77;;;;;;;-3.99;63.94;99391.63;319570;116;2531060;-71
2021/03/09 03:24:08;;;;;;;3.84;2.01;;;;;;;-3.99;64.09;99391.63;343181;116;1963987;-71
2021/03/09 03:25:14;;;;;;;5.35;2.54;;;;;;;-3.95;64.06;99388.74;345741;116;1961878;-71
2021/03/09 03:26:21;;;;;;;5.47;2.31;;;;;;;-3.95;63.87;99391.38;309318;114;2741001;-71
2021/03/09 03:27:27;;;;;;;6.36;2.89;;;;;;;-3.95;63.90;99396.66;345105;114;1961971;-71
2021/03/09 03:28:34;;;;;;;3.88;1.88;;;;;;;-4.01;64.01;99393.54;344877;116;1963976;-71
2021/03/09 03:29:39;;;;;;;5.59;2.84;;;;;;;-4.00;63.96;99391.73;349243;115;1961958;-71
2021/03/09 03:30:50;;;;;;;5.84;2.61;;;;;;;-4.02;63.94;99389.23;311303;115;2773025;-71
2021/03/09 03:31:57;;;;;;;5.22;2.17;;;;;;;-4.02;64.10;99393.67;346873;115;1961992;-72
2021/03/09 03:33:03;;;;;;;6.81;2.40;;;;;;;-4.05;63.96;99396.53;337262;116;1962034;-71
2021/03/09 03:34:10;;;;;;;5.71;2.81;;;;;;;-4.06;63.93;99395.69;346090;116;1961951;-71
2021/03/09 03:35:16;;;;;;;5.41;2.19;;;;;;;-4.07;64.43;99399.30;306774;116;2168382;-71
2021/03/09 03:36:24;;;;;;;5.91;2.41;;;;;;;-4.07;63.92;99403.75;346440;114;1961930;-71
2021/03/09 03:37:42;;;;;;;6.45;2.52;;;;;;;-4.06;63.82;99394.86;311856;116;2025122;-71
2021/03/09 03:38:48;;;;;;;4.57;2.38;;;;;;;-4.06;63.79;99395.69;310805;113;2714989;-71
2021/03/09 03:39:54;;;;;;;5.84;2.47;;;;;;;-4.04;63.79;99408.78;347874;114;1961946;-71
2021/03/09 03:41:01;;;;;;;6.10;2.59;;;;;;;-4.05;63.55;99417.63;348941;114;1962008;-72
2021/03/09 03:42:07;;;;;;;7.86;2.84;;;;;;;-4.08;63.56;99407.33;342655;114;1962029;-71
2021/03/09 03:43:12;;;;;;;5.07;2.73;;;;;;;-4.07;63.87;99399.30;346312;113;1961929;-71
2021/03/09 03:44:18;;;;;;;4.74;2.07;;;;;;;-4.07;63.89;99401.11;348374;114;1961967;-70
2021/03/09 03:45:25;;;;;;;5.04;2.43;;;;;;;-4.05;63.79;99407.08;316677;118;2462950;-70
2021/03/09 03:46:30;;;;;;;7.61;2.93;;;;;;;-4.07;63.91;99399.30;344219;115;1962032;-71
2021/03/09 03:47:37;;;;;;;4.18;2.34;;;;;;;-4.07;63.71;99403.75;352708;113;1963964;-70
2021/03/09 03:48:46;;;;;;;5.45;2.57;;;;;;;-4.06;63.18;99405.41;347126;114;1961962;-70
2021/03/09 03:49:53;;;;;;;5.58;2.53;;;;;;;-4.04;63.06;99406.14;320647;114;1962016;-71
2021/03/09 03:51:01;;;;;;;6.10;2.31;;;;;;;-4.03;63.17;99411.28;348344;114;1960987;-70
2021/03/09 03:52:10;;;;;;;4.14;2.14;;;;;;;-4.02;63.10;99407.70;348942;114;1964035;-69
2021/03/09 03:53:51;;;;;;;4.84;2.46;;;;;;;-4.02;62.70;99414.78;349404;113;1961995;-71
2021/03/09 03:55:01;;;;;;;4.79;2.23;;;;;;;-4.02;62.32;99409.50;338477;117;1961869;-71
2021/03/09 03:56:44;;;;;;;5.40;2.44;;;;;;;-4.02;62.49;99410.34;341952;116;1961980;-71
2021/03/09 03:57:50;;;;;;;;;;;;;;;-4.00;62.44;99423.39;341781;118;1960936;-71
2021/03/09 03:59:06;;;;;;;6.26;2.76;;;;;;;-3.98;61.83;99421.48;316742;116;2875967;-71
2021/03/09 04:00:14;;;;;;;3.97;2.22;;;;;;;-3.97;61.76;99425.79;337675;116;1961975;-71
2021/03/09 04:01:21;;;;;;;5.18;2.20;;;;;;;-3.95;61.16;99420.41;328866;116;2316971;-72
2021/03/09 04:02:28;;;;;;;4.68;2.39;;;;;;;-3.94;61.52;99422.94;343774;116;1961943;-72
2021/03/09 04:03:36;;;;;;;4.07;1.93;;;;;;;-3.91;61.57;99424.50;342959;117;1961966;-71
2021/03/09 04:04:46;;;;;;;3.72;1.77;;;;;;;-3.92;61.01;99423.63;318983;117;2446032;-72
2021/03/09 04:05:53;;;;;;;5.11;2.11;;;;;;;-3.93;60.99;99429.05;317974;117;2240005;-72
2021/03/09 04:06:58;;;;;;;5.12;2.53;;;;;;;-3.94;60.89;99441.41;337842;117;1962095;-72
2021/03/09 04:08:05;;;;;;;5.19;2.43;;;;;;;-3.92;61.16;99428.08;339837;116;1961966;-72
2021/03/09 04:09:12;;;;;;;6.43;2.41;;;;;;;-3.90;61.05;99429.64;300136;116;2189922;-71
2021/03/09 04:10:18;;;;;;;5.84;2.48;;;;;;;-3.91;60.97;99435.88;341539;115;1962983;-71
2021/03/09 04:11:25;;;;;;;3.89;2.12;;;;;;;-3.92;60.29;99434.19;326647;115;2194945;-72
2021/03/09 04:12:31;;;;;;;6.21;2.28;;;;;;;-3.94;60.31;99451.09;344206;115;1962123;-71
2021/03/09 04:13:41;;;;;;;6.01;2.63;;;;;;;-3.96;60.24;99440.67;311468;115;2235032;-71
2021/03/09 04:14:47;;;;;;;6.97;2.51;;;;;;;-3.99;60.13;99444.39;307577;117;2230937;-71
2021/03/09 04:15:54;;;;;;;8.27;3.22;;;;;;;-3.98;60.58;99442.59;346171;115;1961895;-71
2021/03/09 04:17:03;;;;;;;5.99;2.65;;;;;;;-4.00;60.60;99442.69;306209;115;2160267;-72
2021/03/09 04:18:11;;;;;;;5.20;2.38;;;;;;;-4.00;61.04;99442.69;301707;115;2886981;-70
2021/03/09 04:19:19;;;;;;;4.57;2.27;;;;;;;-3.98;61.07;99447.86;345853;115;1962985;-70
2021/03/09 04:20:25;;;;;;;5.09;2.30;;;;;;;-4.00;61.29;99441.86;335193;118;1961991;-70
2021/03/09 04:21:32;;;;;;;4.36;2.57;;;;;;;-3.98;61.20;99447.86;345233;115;1962018;-72
2021/03/09 04:22:39;;;;;;;5.89;2.58;;;;;;;-3.96;61.30;99440.67;331501;115;1963819;-71
2021/03/09 04:23:46;;;;;;;5.68;2.33;;;;;;;-3.95;61.02;99441.52;342936;115;1961978;-71
2021/03/09 04:24:52;;;;;;;5.51;2.53;;;;;;;-3.94;60.89;99440.54;339694;115;1962073;-71
2021/03/09 04:26:00;;;;;;;7.01;2.51;;;;;;;-3.95;61.19;99442.34;349073;114;1963013;-71
2021/03/09 04:27:06;;;;;;;6.19;2.47;;;;;;;-3.95;60.99;99436.23;351539;114;1964062;-71
2021/03/09 04:28:13;;;;;;;5.97;2.77;;;;;;;-3.94;61.12;99437.91;349219;114;1961991;-71
2021/03/09 04:29:20;;;;;;;7.79;3.38;;;;;;;-3.96;60.76;99445.95;347307;114;1963948;-71
2021/03/09 04:30:28;;;;;;;8.02;3.08;;;;;;;-3.96;61.01;99445.13;343669;116;1961998;-71
2021/03/09 04:31:33;;;;;;;6.04;3.09;;;;;;;-3.96;60.96;99451.23;343464;114;1963692;-72
2021/03/09 04:32:40;;;;;;;6.68;2.97;;;;;;;-3.93;60.86;99448.34;351624;111;1961924;-72
2021/03/09 04:33:48;;;;;;;5.34;2.79;;;;;;;-3.94;61.01;99449.32;297474;118;2148454;-72
2021/03/09 04:34:54;;;;;;;6.15;2.91;;;;;;;-3.95;60.74;99450.26;335749;118;1962946;-72
2021/03/09 04:36:04;;;;;;;7.28;3.11;;;;;;;-3.97;61.04;99449.53;333931;119;1964985;-73
2021/03/09 04:37:12;;;;;;;6.58;3.31;;;;;;;-3.95;61.35;99454.70;334103;119;1961962;-72
2021/03/09 04:38:18;;;;;;;7.39;3.65;;;;;;;-3.94;61.28;99448.45;318904;120;2318036;-72
2021/03/09 04:39:24;;;;;;;6.71;3.31;;;;;;;-3.92;61.41;99450.02;335457;119;1961979;-73
2021/03/09 04:40:33;;;;;;;6.93;2.71;;;;;;;-3.94;61.79;99449.32;319746;119;2856969;-73
2021/03/09 04:41:39;;;;;;;6.39;2.95;;;;;;;-3.91;61.75;99445.61;332856;119;1962063;-73
2021/03/09 04:42:45;;;;;;;6.11;2.89;;;;;;;-3.95;61.36;99447.63;304147;119;2199014;-72
2021/03/09 04:43:50;;;;;;;6.32;3.02;;;;;;;-3.95;61.92;99452.90;335639;110;1963086;-71
2021/03/09 04:44:56;;;;;;;6.23;3.42;;;;;;;-3.95;62.01;99454.70;345819;115;1961958;-71
2021/03/09 04:46:02;;;;;;;7.24;3.57;;;;;;;-3.94;61.95;99448.45;350019;113;1962025;-72
2021/03/09 04:47:10;;;;;;;7.21;3.22;;;;;;;-3.94;62.13;99453.73;350194;113;1961941;-72
2021/03/09 04:48:15;;;;;;;6.94;3.34;;;;;;;-3.93;61.91;99468.63;347613;113;1962030;-72
2021/03/09 04:49:23;;;;;;;7.33;3.79;;;;;;;-3.95;62.08;99463.45;342891;115;1964910;-71
2021/03/09 04:50:30;;;;;;;8.27;4.34;;;;;;;-3.95;62.01;99466.09;306355;115;2767013;-71
2021/03/09 04:51:37;;;;;;;7.23;4.59;;;;;;;-3.96;61.88;99463.59;338797;115;1964057;-72
2021/03/09 04:52:48;;;;;;;7.14;3.14;;;;;;;-3.93;61.88;99466.82;342985;115;1961982;-71
2021/03/09 04:53:54;;;;;;;8.64;3.91;;;;;;;-3.94;61.73;99459.01;311920;115;2231958;-71
2021/03/09 04:55:02;;;;;;;8.53;3.47;;;;;;;-3.90;61.68;99463.11;344912;115;1962063;-71
2021/03/09 04:56:09;;;;;;;7.01;3.02;;;;;;;-3.89;61.57;99468.28;329207;115;1964964;-71
2021/03/09 04:57:15;;;;;;;6.95;2.93;;;;;;;-3.89;61.13;99468.28;345549;115;1962960;-72
2021/03/09 04:58:20;;;;;;;5.79;3.01;;;;;;;-3.88;61.15;99469.11;319966;115;2523122;-72
2021/03/09 04:59:26;;;;;;;5.70;2.66;;;;;;;-3.91;60.89;99467.55;344146;115;1963964;-72
2021/03/09 05:00:33;;;;;;;6.74;3.01;;;;;;;-3.86;60.97;99464.56;345308;115;1962064;-71
2021/03/09 05:01:38;;;;;;;5.36;2.90;;;;;;;-3.87;60.94;99468.14;315888;115;2227931;-72
2021/03/09 05:02:49;;;;;;;6.08;2.92;;;;;;;-4.04;61.10;99435.99;343903;115;1961918;-72
2021/03/09 05:03:56;;;;;;;6.35;2.80;;;;;;;-3.86;61.23;99475.95;345282;115;1961938;-71
2021/03/09 05:05:02;;;;;;;7.37;2.85;;;;;;;-3.84;61.13;99470.53;327549;115;2343981;-71
2021/03/09 05:06:07;;;;;;;6.36;3.02;;;;;;;-3.82;61.39;99472.09;345440;115;1961939;-72
2021/03/09 05:07:12;;;;;;;5.03;2.70;;;;;;;-3.79;61.35;99473.66;345633;115;1961996;-71
2021/03/09 05:08:20;;;;;;;4.66;2.32;;;;;;;-3.77;61.27;99477.86;343749;115;1962993;-71
2021/03/09 05:09:25;;;;;;;5.96;2.90;;;;;;;-3.76;60.86;99473.42;346638;115;1961997;-71
2021/03/09 05:10:32;;;;;;;5.79;2.79;;;;;;;-3.76;60.68;99481.34;345279;115;1963033;-71
2021/03/09 05:11:37;;;;;;;5.62;3.22;;;;;;;-3.73;60.76;99483.77;316748;115;2552933;-71
2021/03/09 05:12:50;;;;;;;5.49;2.77;;;;;;;-3.72;60.78;99487.23;331931;115;1965808;-71